Time;durP1;ratioP1;P1;durP2;ratioP2;P2;SDS_P1;SDS_P2;PMS_P1;PMS_P2;Temp;Humidity;BMP_temperature;BMP_pressure;BME280_temperature;BME280_humidity;BME280_pressure;Samples;Min_cycle;Max_cycle;Signal;HPM_P1;HPM_P2
2022/04/11 00:01:35;;;;;;;;;;;19.60;99.90;;;;;;5064100;28;19947;-62
2022/04/11 00:04:02;;;;;;;;;;;19.60;99.90;;;;;;5065936;28;19928;-60
2022/04/11 00:06:29;;;;;;;;;;;19.60;99.90;;;;;;5066744;28;19924;-62
2022/04/11 00:08:56;;;;;;;;;;;19.60;99.90;;;;;;5052197;28;19932;-61
2022/04/11 00:11:24;;;;;;;;;;;19.50;99.90;;;;;;5077898;28;19925;-60
2022/04/11 00:13:51;;;;;;;;;;;19.50;99.90;;;;;;5069285;28;19924;-60
2022/04/11 00:16:18;;;;;;;;;;;19.50;99.90;;;;;;5065969;28;20385;-60
2022/04/11 00:18:45;;;;;;;;;;;19.50;99.90;;;;;;5060691;28;19944;-63
2022/04/11 00:21:12;;;;;;;;;;;19.50;99.90;;;;;;5064627;28;19929;-62
2022/04/11 00:23:39;;;;;;;;;;;19.50;99.90;;;;;;5053588;28;19932;-62
2022/04/11 00:26:06;;;;;;;;;;;19.50;99.90;;;;;;5063517;28;19932;-61
2022/04/11 00:28:35;;;;;;;;;;;19.50;99.90;;;;;;5061186;28;19943;-62
2022/04/11 00:31:02;;;;;;;;;;;19.50;99.90;;;;;;5059147;28;19928;-62
2022/04/11 00:33:30;;;;;;;;;;;19.50;99.90;;;;;;5049213;28;19931;-62
2022/04/11 00:35:57;;;;;;;;;;;19.50;99.90;;;;;;5059410;28;19925;-62
2022/04/11 00:38:24;;;;;;;;;;;19.50;99.90;;;;;;5062489;28;19924;-62
2022/04/11 00:40:51;;;;;;;;;;;19.50;99.90;;;;;;5056884;28;19924;-62
2022/04/11 00:43:35;;;;;;;;;;;19.50;99.90;;;;;;5067945;28;19920;-62
2022/04/11 00:46:03;;;;;;;;;;;19.40;99.90;;;;;;5064512;28;19924;-62
2022/04/11 00:48:33;;;;;;;;;;;19.50;99.90;;;;;;5058946;28;20019;-64
2022/04/11 00:51:02;;;;;;;;;;;19.50;99.90;;;;;;5065560;28;20321;-60
2022/04/11 00:53:31;;;;;;;;;;;19.40;99.90;;;;;;5056059;28;19955;-61
2022/04/11 00:56:00;;;;;;;;;;;19.40;99.90;;;;;;5057325;28;19924;-60
2022/04/11 00:58:29;;;;;;;;;;;19.40;99.90;;;;;;5061574;28;19924;-61
2022/04/11 01:00:56;;;;;;;;;;;19.40;99.90;;;;;;5047020;28;19924;-64
2022/04/11 01:03:24;;;;;;;;;;;19.40;99.90;;;;;;5051615;28;19936;-63
2022/04/11 01:05:52;;;;;;;;;;;19.40;99.90;;;;;;5059892;28;20400;-61
2022/04/11 01:08:19;;;;;;;;;;;19.40;99.90;;;;;;5055723;28;19924;-63
2022/04/11 01:10:47;;;;;;;;;;;19.40;99.90;;;;;;5062118;28;19927;-63
2022/04/11 01:13:15;;;;;;;;;;;19.40;99.90;;;;;;5063789;28;19950;-61
2022/04/11 01:15:52;;;;;;;;;;;19.30;99.90;;;;;;5058004;28;19928;-62
2022/04/11 01:18:19;;;;;;;;;;;19.30;99.90;;;;;;5035943;28;19928;-62
2022/04/11 01:20:47;;;;;;;;;;;19.30;99.90;;;;;;5060059;28;19921;-61
2022/04/11 01:23:14;;;;;;;;;;;19.30;99.90;;;;;;5069854;28;19920;-61
2022/04/11 01:25:42;;;;;;;;;;;19.30;99.90;;;;;;5052747;28;19925;-61
2022/04/11 01:28:09;;;;;;;;;;;19.30;99.90;;;;;;5050689;28;19947;-61
2022/04/11 01:30:36;;;;;;;;;;;19.30;99.90;;;;;;5053395;28;19921;-60
2022/04/11 01:33:13;;;;;;;;;;;19.30;99.90;;;;;;5065789;28;19920;-62
2022/04/11 01:35:40;;;;;;;;;;;19.30;99.90;;;;;;5064557;28;19931;-63
2022/04/11 01:38:08;;;;;;;;;;;19.30;99.90;;;;;;5046089;28;19931;-62
2022/04/11 01:40:35;;;;;;;;;;;19.30;99.90;;;;;;5066129;28;19987;-62
2022/04/11 01:43:02;;;;;;;;;;;19.30;99.90;;;;;;5056937;28;20395;-63
2022/04/11 01:45:30;;;;;;;;;;;19.30;99.90;;;;;;5049379;28;19924;-60
2022/04/11 01:47:57;;;;;;;;;;;19.30;99.90;;;;;;5060710;28;19931;-61
2022/04/11 01:50:24;;;;;;;;;;;19.30;99.90;;;;;;5045626;28;19924;-61
2022/04/11 01:52:51;;;;;;;;;;;19.30;99.90;;;;;;5040483;28;20381;-61
2022/04/11 01:55:19;;;;;;;;;;;19.20;99.90;;;;;;5046664;28;19921;-62
2022/04/11 01:57:47;;;;;;;;;;;19.20;99.90;;;;;;5066041;28;20262;-60
2022/04/11 02:00:15;;;;;;;;;;;19.20;99.90;;;;;;5050367;28;19943;-62
2022/04/11 02:02:44;;;;;;;;;;;19.20;99.90;;;;;;5047882;28;20420;-61
2022/04/11 02:05:12;;;;;;;;;;;19.20;99.90;;;;;;5060012;28;19924;-61
2022/04/11 02:07:39;;;;;;;;;;;19.20;99.90;;;;;;5048352;28;20403;-60
2022/04/11 02:10:09;;;;;;;;;;;19.20;99.90;;;;;;5043653;28;19984;-61
2022/04/11 02:12:36;;;;;;;;;;;19.20;99.90;;;;;;5044609;28;19931;-61
2022/04/11 02:15:03;;;;;;;;;;;19.20;99.90;;;;;;5046008;28;19931;-60
2022/04/11 02:17:31;;;;;;;;;;;19.20;99.90;;;;;;5064385;28;20297;-62
2022/04/11 02:19:58;;;;;;;;;;;19.20;99.90;;;;;;5048102;28;19924;-61
2022/04/11 02:22:26;;;;;;;;;;;19.20;99.90;;;;;;5044210;28;19931;-60
2022/04/11 02:24:53;;;;;;;;;;;19.10;99.90;;;;;;5043221;28;19925;-61
2022/04/11 02:27:21;;;;;;;;;;;19.10;99.90;;;;;;5060868;28;19932;-61
2022/04/11 02:29:48;;;;;;;;;;;19.10;99.90;;;;;;5047873;28;19924;-60
2022/04/11 02:32:16;;;;;;;;;;;19.10;99.90;;;;;;5040986;28;20282;-63
2022/04/11 02:34:43;;;;;;;;;;;19.10;99.90;;;;;;5043869;28;19933;-61
2022/04/11 02:37:10;;;;;;;;;;;19.10;99.90;;;;;;5049533;28;19920;-63
2022/04/11 02:39:38;;;;;;;;;;;19.10;99.90;;;;;;5044496;28;19932;-61
2022/04/11 02:42:06;;;;;;;;;;;19.10;99.90;;;;;;5044163;28;19931;-63
2022/04/11 02:44:33;;;;;;;;;;;19.10;99.90;;;;;;5049180;28;19936;-62
2022/04/11 02:47:01;;;;;;;;;;;19.10;99.90;;;;;;5052102;28;19920;-62
2022/04/11 02:49:28;;;;;;;;;;;19.10;99.90;;;;;;5065761;28;19931;-62
2022/04/11 02:52:10;;;;;;;;;;;19.10;99.90;;;;;;5025069;28;19932;-61
2022/04/11 02:54:37;;;;;;;;;;;19.00;99.90;;;;;;5025398;28;19933;-61
2022/04/11 02:57:05;;;;;;;;;;;19.10;99.90;;;;;;5023005;28;19925;-60
2022/04/11 02:59:33;;;;;;;;;;;19.10;99.90;;;;;;5021191;28;20310;-61
2022/04/11 03:02:00;;;;;;;;;;;19.10;99.90;;;;;;5037334;28;19925;-62
2022/04/11 03:04:28;;;;;;;;;;;19.10;99.90;;;;;;5021949;28;19925;-61
2022/04/11 03:07:08;;;;;;;;;;;19.00;99.90;;;;;;5022286;28;19948;-61
2022/04/11 03:09:36;;;;;;;;;;;19.00;99.90;;;;;;5022331;28;19940;-59
2022/04/11 03:12:04;;;;;;;;;;;19.00;99.90;;;;;;5024443;28;19925;-60
2022/04/11 03:14:32;;;;;;;;;;;19.00;99.90;;;;;;5022387;28;19932;-60
2022/04/11 03:16:59;;;;;;;;;;;19.00;99.90;;;;;;5025322;28;19921;-63
2022/04/11 03:19:29;;;;;;;;;;;19.00;99.90;;;;;;5027847;28;20516;-61
2022/04/11 03:21:58;;;;;;;;;;;19.10;99.90;;;;;;5025934;28;19925;-63
2022/04/11 03:24:25;;;;;;;;;;;19.00;99.90;;;;;;5026421;28;19944;-61
2022/04/11 03:26:53;;;;;;;;;;;19.00;99.90;;;;;;5025858;28;19925;-61
2022/04/11 03:29:33;;;;;;;;;;;19.00;99.90;;;;;;5033797;28;19925;-60
2022/04/11 03:32:00;;;;;;;;;;;19.00;99.90;;;;;;5015080;28;19925;-59
2022/04/11 03:34:30;;;;;;;;;;;18.90;99.90;;;;;;5031132;28;19924;-60
2022/04/11 03:36:58;;;;;;;;;;;18.90;99.90;;;;;;5023720;28;20314;-58
2022/04/11 03:39:29;;;;;;;;;;;18.90;99.90;;;;;;5027243;28;19925;-58
2022/04/11 03:41:56;;;;;;;;;;;18.90;99.90;;;;;;5025149;28;20425;-58
2022/04/11 03:44:28;;;;;;;;;;;18.80;99.90;;;;;;5039619;28;19932;-65
2022/04/11 03:47:01;;;;;;;;;;;18.80;99.90;;;;;;5017383;28;19925;-61
2022/04/11 03:49:32;;;;;;;;;;;18.80;99.90;;;;;;5027482;28;20310;-61
2022/04/11 03:52:07;;;;;;;;;;;18.80;99.90;;;;;;5046905;28;19924;-59
2022/04/11 03:54:35;;;;;;;;;;;18.90;99.90;;;;;;5031907;28;20298;-59
2022/04/11 03:57:02;;;;;;;;;;;19.00;99.90;;;;;;5049520;28;19932;-61
2022/04/11 03:59:29;;;;;;;;;;;19.20;99.90;;;;;;5040951;28;19940;-59
2022/04/11 04:01:56;;;;;;;;;;;19.20;99.90;;;;;;5041378;28;19920;-61
2022/04/11 04:04:24;;;;;;;;;;;19.40;99.90;;;;;;5056245;28;19925;-62
2022/04/11 04:06:51;;;;;;;;;;;19.60;99.90;;;;;;5046196;28;19940;-61
2022/04/11 04:09:19;;;;;;;;;;;19.70;99.90;;;;;;5045709;28;19924;-60
2022/04/11 04:11:47;;;;;;;;;;;19.90;99.90;;;;;;5062207;28;19924;-59
2022/04/11 04:14:37;;;;;;;;;;;20.00;99.90;;;;;;5052490;28;20463;-60
2022/04/11 04:17:07;;;;;;;;;;;20.20;99.90;;;;;;5048557;28;19931;-60
2022/04/11 04:19:54;;;;;;;;;;;20.30;99.90;;;;;;5045780;28;19936;-61
2022/04/11 04:22:23;;;;;;;;;;;20.50;99.90;;;;;;5046812;28;19925;-62
2022/04/11 04:24:50;;;;;;;;;;;20.70;99.90;;;;;;5042540;28;20409;-63
2022/04/11 04:27:18;;;;;;;;;;;20.90;99.90;;;;;;5052315;28;19927;-62
2022/04/11 04:29:45;;;;;;;;;;;21.10;99.90;;;;;;5065569;28;19936;-60
2022/04/11 04:32:13;;;;;;;;;;;21.30;99.90;;;;;;5055866;28;20171;-61
2022/04/11 04:34:43;;;;;;;;;;;21.40;99.90;;;;;;5056893;28;19931;-63
2022/04/11 04:37:11;;;;;;;;;;;21.60;99.90;;;;;;5062805;28;19924;-62
2022/04/11 04:39:38;;;;;;;;;;;21.70;99.90;;;;;;5048133;28;20251;-63
2022/04/11 04:42:07;;;;;;;;;;;21.70;99.90;;;;;;5056269;28;19936;-61
2022/04/11 04:44:39;;;;;;;;;;;21.80;99.90;;;;;;5046783;28;19947;-62
2022/04/11 04:47:10;;;;;;;;;;;21.80;99.90;;;;;;5053579;28;19928;-62
2022/04/11 04:49:41;;;;;;;;;;;21.80;99.90;;;;;;5047946;28;19947;-62
2022/04/11 04:52:11;;;;;;;;;;;21.90;99.90;;;;;;5053376;28;20262;-62
2022/04/11 04:54:58;;;;;;;;;;;21.80;99.90;;;;;;5057258;28;19932;-62
2022/04/11 04:57:27;;;;;;;;;;;21.90;99.90;;;;;;5041718;28;20312;-63
2022/04/11 04:59:55;;;;;;;;;;;21.90;99.90;;;;;;5032190;28;19932;-62
2022/04/11 05:02:37;;;;;;;;;;;21.80;99.90;;;;;;5040255;28;21514;-66
2022/04/11 05:05:08;;;;;;;;;;;21.80;99.90;;;;;;5052893;28;19920;-64
2022/04/11 05:07:36;;;;;;;;;;;21.80;99.90;;;;;;5048187;28;20393;-62
2022/04/11 05:10:09;;;;;;;;;;;21.80;99.90;;;;;;5039546;28;19924;-63
2022/04/11 05:12:41;;;;;;;;;;;21.70;99.90;;;;;;5037637;28;19932;-62
2022/04/11 05:15:09;;;;;;;;;;;21.70;99.90;;;;;;5044256;28;19928;-62
2022/04/11 05:17:36;;;;;;;;;;;21.70;99.90;;;;;;5049976;28;19931;-62
2022/04/11 05:20:04;;;;;;;;;;;21.70;99.90;;;;;;5037025;28;19957;-64
2022/04/11 05:22:31;;;;;;;;;;;21.60;99.90;;;;;;5062975;28;20224;-62
2022/04/11 05:24:58;;;;;;;;;;;21.60;99.90;;;;;;5032153;28;20023;-61
2022/04/11 05:27:26;;;;;;;;;;;21.60;99.90;;;;;;5063435;28;19928;-62
2022/04/11 05:29:53;;;;;;;;;;;21.60;99.90;;;;;;5064685;28;20400;-62
2022/04/11 05:32:20;;;;;;;;;;;21.50;99.90;;;;;;5038777;28;19947;-63
2022/04/11 05:34:48;;;;;;;;;;;21.50;99.90;;;;;;5061518;28;19940;-61
2022/04/11 05:37:15;;;;;;;;;;;21.50;99.90;;;;;;5040908;28;19931;-64
2022/04/11 05:39:42;;;;;;;;;;;21.40;99.90;;;;;;5062059;28;19928;-64
2022/04/11 05:42:10;;;;;;;;;;;21.40;99.90;;;;;;5055516;28;19921;-63
2022/04/11 05:44:40;;;;;;;;;;;21.30;99.90;;;;;;5045289;28;19925;-65
2022/04/11 05:47:07;;;;;;;;;;;21.30;99.90;;;;;;5050320;28;19920;-69
2022/04/11 05:49:45;;;;;;;;;;;21.30;99.90;;;;;;5062388;28;19936;-63
2022/04/11 05:52:19;;;;;;;;;;;21.30;99.90;;;;;;5066371;28;19927;-64
2022/04/11 05:54:46;;;;;;;;;;;21.30;99.90;;;;;;5041625;28;19928;-63
2022/04/11 05:57:13;;;;;;;;;;;21.20;99.90;;;;;;5040244;28;20384;-64
2022/04/11 05:59:41;;;;;;;;;;;21.20;99.90;;;;;;5060923;28;20321;-64
2022/04/11 06:02:10;;;;;;;;;;;21.10;99.90;;;;;;5053723;28;19940;-60
2022/04/11 06:04:38;;;;;;;;;;;21.10;99.90;;;;;;5044667;28;20310;-61
2022/04/11 06:07:06;;;;;;;;;;;21.10;99.90;;;;;;5033545;28;19928;-59
2022/04/11 06:09:34;;;;;;;;;;;21.10;99.90;;;;;;5066005;28;19932;-57
2022/04/11 06:12:02;;;;;;;;;;;21.00;99.90;;;;;;5044485;28;19929;-58
2022/04/11 06:14:32;;;;;;;;;;;21.00;99.90;;;;;;5045745;28;20420;-59
2022/04/11 06:17:00;;;;;;;;;;;20.90;99.90;;;;;;5049743;28;20228;-58
2022/04/11 06:19:27;;;;;;;;;;;20.90;99.50;;;;;;5040408;28;20318;-59
2022/04/11 06:21:54;;;;;;;;;;;20.60;95.60;;;;;;5046534;28;19925;-60
2022/04/11 06:24:24;;;;;;;;;;;20.40;93.20;;;;;;5042146;28;19925;-59
2022/04/11 06:26:51;;;;;;;;;;;20.40;92.20;;;;;;5049433;28;19925;-58
2022/04/11 06:29:18;;;;;;;;;;;20.30;91.60;;;;;;5056593;28;19951;-61
2022/04/11 06:31:45;;;;;;;;;;;20.40;90.50;;;;;;5041062;28;19931;-60
2022/04/11 06:34:19;;;;;;;;;;;20.50;90.00;;;;;;5045894;28;19925;-61
2022/04/11 06:36:47;;;;;;;;;;;20.60;90.20;;;;;;5043454;28;19928;-63
2022/04/11 06:39:14;;;;;;;;;;;20.80;90.30;;;;;;5032098;28;19948;-60
2022/04/11 06:41:47;;;;;;;;;;;21.00;90.50;;;;;;5047836;28;19929;-60
2022/04/11 06:44:14;;;;;;;;;;;21.10;90.60;;;;;;5050316;28;19924;-61
2022/04/11 06:46:56;;;;;;;;;;;21.30;90.70;;;;;;5043570;28;19932;-60
2022/04/11 06:49:26;;;;;;;;;;;21.40;90.90;;;;;;5045287;28;19935;-60
2022/04/11 06:51:57;;;;;;;;;;;21.50;91.10;;;;;;5039642;28;19933;-60
2022/04/11 06:54:25;;;;;;;;;;;21.60;91.20;;;;;;5059091;28;19925;-61
2022/04/11 06:56:52;;;;;;;;;;;21.70;91.60;;;;;;5043278;28;19921;-60
2022/04/11 06:59:20;;;;;;;;;;;21.80;91.80;;;;;;5066287;28;19924;-60
2022/04/11 07:01:47;;;;;;;;;;;21.80;91.90;;;;;;5066104;28;19929;-59
2022/04/11 07:04:14;;;;;;;;;;;21.90;91.90;;;;;;5062859;28;19925;-60
2022/04/11 07:06:41;;;;;;;;;;;21.90;92.00;;;;;;5058049;28;19947;-59
2022/04/11 07:09:08;;;;;;;;;;;22.00;92.20;;;;;;5063211;28;19924;-59
2022/04/11 07:11:36;;;;;;;;;;;22.00;92.30;;;;;;5056224;28;19920;-61
2022/04/11 07:14:03;;;;;;;;;;;21.90;92.40;;;;;;5058977;28;20263;-60
2022/04/11 07:16:31;;;;;;;;;;;21.90;92.60;;;;;;5061675;28;19928;-61
2022/04/11 07:18:58;;;;;;;;;;;21.90;92.70;;;;;;5057614;28;19931;-60
2022/04/11 07:21:25;;;;;;;;;;;21.90;92.80;;;;;;5059409;28;20597;-60
2022/04/11 07:23:52;;;;;;;;;;;21.80;92.90;;;;;;5059238;28;19928;-62
2022/04/11 07:26:20;;;;;;;;;;;21.80;93.10;;;;;;5063400;28;19924;-61
2022/04/11 07:28:47;;;;;;;;;;;21.80;93.20;;;;;;5060721;28;19929;-61
2022/04/11 07:31:15;;;;;;;;;;;21.70;93.40;;;;;;5066958;28;20359;-60
2022/04/11 07:33:42;;;;;;;;;;;21.70;93.60;;;;;;5045398;28;19928;-61
2022/04/11 07:36:10;;;;;;;;;;;21.70;93.90;;;;;;5068090;28;19924;-59
2022/04/11 07:38:37;;;;;;;;;;;21.60;94.00;;;;;;5067770;28;19924;-61
2022/04/11 07:41:04;;;;;;;;;;;21.60;94.10;;;;;;5053435;28;19921;-60
2022/04/11 07:43:31;;;;;;;;;;;21.60;94.40;;;;;;5068848;28;19935;-59
2022/04/11 07:46:01;;;;;;;;;;;21.60;94.60;;;;;;5051328;28;19932;-59
2022/04/11 07:48:29;;;;;;;;;;;21.50;94.70;;;;;;5062756;28;19924;-59
2022/04/11 07:50:56;;;;;;;;;;;21.40;94.80;;;;;;5061053;28;19925;-59
2022/04/11 07:53:24;;;;;;;;;;;21.50;95.00;;;;;;5056879;28;20571;-60
2022/04/11 07:55:51;;;;;;;;;;;21.40;95.10;;;;;;5061147;28;19924;-60
2022/04/11 07:58:19;;;;;;;;;;;21.40;95.20;;;;;;5062810;28;20273;-61
2022/04/11 08:00:51;;;;;;;;;;;21.40;95.30;;;;;;5067223;28;19924;-62
2022/04/11 08:03:19;;;;;;;;;;;21.40;95.40;;;;;;5055815;28;19991;-61
2022/04/11 08:05:46;;;;;;;;;;;21.30;95.40;;;;;;5065679;28;19955;-62
2022/04/11 08:08:14;;;;;;;;;;;21.30;95.50;;;;;;5058804;28;19932;-60
2022/04/11 08:10:42;;;;;;;;;;;21.30;95.60;;;;;;5062776;28;19932;-60
2022/04/11 08:13:09;;;;;;;;;;;21.30;95.70;;;;;;5053587;28;19951;-63
2022/04/11 08:15:37;;;;;;;;;;;21.30;95.70;;;;;;5061681;28;19932;-59
2022/04/11 08:18:04;;;;;;;;;;;21.20;95.80;;;;;;5056204;28;20381;-62
2022/04/11 08:20:32;;;;;;;;;;;21.20;95.90;;;;;;5068490;28;19964;-60
2022/04/11 08:22:59;;;;;;;;;;;21.20;96.00;;;;;;5059530;28;19955;-61
2022/04/11 08:25:26;;;;;;;;;;;21.20;96.10;;;;;;5066277;28;19935;-61
2022/04/11 08:27:54;;;;;;;;;;;21.20;96.20;;;;;;5047375;28;19925;-60
2022/04/11 08:30:21;;;;;;;;;;;21.10;96.30;;;;;;5057027;28;19924;-61
2022/04/11 08:32:50;;;;;;;;;;;21.10;96.50;;;;;;5061466;28;20408;-61
2022/04/11 08:35:21;;;;;;;;;;;21.10;96.70;;;;;;5043779;28;19928;-60
2022/04/11 08:37:51;;;;;;;;;;;21.10;96.80;;;;;;5062473;28;19948;-58
2022/04/11 08:40:19;;;;;;;;;;;21.10;97.00;;;;;;5061261;28;19925;-58
2022/04/11 08:42:48;;;;;;;;;;;21.10;97.20;;;;;;5056265;28;19920;-60
2022/04/11 08:45:17;;;;;;;;;;;21.00;97.40;;;;;;5064615;28;19952;-60
2022/04/11 08:47:45;;;;;;;;;;;21.00;97.60;;;;;;5056772;28;19936;-60
2022/04/11 08:50:13;;;;;;;;;;;21.00;98.00;;;;;;5061952;28;20344;-58
2022/04/11 08:52:40;;;;;;;;;;;21.00;98.10;;;;;;5064220;28;20378;-59
2022/04/11 08:55:08;;;;;;;;;;;21.00;98.30;;;;;;5065222;28;19936;-60
2022/04/11 08:57:36;;;;;;;;;;;21.00;98.60;;;;;;5054859;28;19928;-59
2022/04/11 09:00:10;;;;;;;;;;;21.00;98.80;;;;;;5050598;28;20378;-59
2022/04/11 09:02:39;;;;;;;;;;;21.00;99.00;;;;;;5038227;28;19924;-59
2022/04/11 09:05:06;;;;;;;;;;;20.90;99.10;;;;;;5056955;28;19925;-58
2022/04/11 09:07:50;;;;;;;;;;;20.90;99.30;;;;;;5057703;28;19924;-59
2022/04/11 09:10:18;;;;;;;;;;;20.90;99.50;;;;;;5060465;28;20337;-57
2022/04/11 09:12:50;;;;;;;;;;;20.90;99.90;;;;;;5060725;28;20420;-61
2022/04/11 09:15:18;;;;;;;;;;;20.90;99.90;;;;;;5066318;28;19947;-57
2022/04/11 09:17:46;;;;;;;;;;;20.90;99.90;;;;;;5062115;28;19924;-58
2022/04/11 09:20:15;;;;;;;;;;;20.90;99.90;;;;;;5044149;28;20453;-60
2022/04/11 09:22:42;;;;;;;;;;;20.80;99.90;;;;;;5067448;28;19924;-60
2022/04/11 09:25:11;;;;;;;;;;;20.80;99.90;;;;;;5058260;28;20409;-58
2022/04/11 09:27:39;;;;;;;;;;;20.80;99.90;;;;;;5066429;28;19924;-57
2022/04/11 09:30:17;;;;;;;;;;;20.80;99.90;;;;;;5071190;28;19931;-58
2022/04/11 09:32:53;;;;;;;;;;;20.70;99.90;;;;;;5058480;28;20133;-59
2022/04/11 09:35:21;;;;;;;;;;;20.70;99.90;;;;;;5055348;28;20305;-58
2022/04/11 09:38:03;;;;;;;;;;;20.70;99.90;;;;;;5053432;28;20388;-60
2022/04/11 09:40:34;;;;;;;;;;;20.60;99.90;;;;;;5044416;28;19939;-57
2022/04/11 09:43:02;;;;;;;;;;;20.60;99.90;;;;;;5060804;28;20400;-57
2022/04/11 09:45:29;;;;;;;;;;;20.60;99.90;;;;;;5058971;28;19931;-57
2022/04/11 09:48:00;;;;;;;;;;;20.60;99.90;;;;;;5053363;28;19924;-57
2022/04/11 09:50:28;;;;;;;;;;;20.60;99.90;;;;;;5054501;28;20545;-61
2022/04/11 09:53:13;;;;;;;;;;;20.60;99.90;;;;;;5054893;28;19928;-60
2022/04/11 09:55:42;;;;;;;;;;;20.50;99.90;;;;;;5038511;28;19931;-60
2022/04/11 09:58:09;;;;;;;;;;;20.50;99.90;;;;;;5058922;28;19924;-58
2022/04/11 10:00:41;;;;;;;;;;;20.50;99.90;;;;;;5056948;28;20344;-59
2022/04/11 10:03:09;;;;;;;;;;;20.50;99.90;;;;;;5060789;28;20625;-57
2022/04/11 10:05:37;;;;;;;;;;;20.50;99.90;;;;;;5043311;28;20461;-58
2022/04/11 10:08:05;;;;;;;;;;;20.40;99.90;;;;;;5060536;28;19931;-60
2022/04/11 10:10:34;;;;;;;;;;;20.40;99.90;;;;;;5058711;28;19925;-59
2022/04/11 10:13:02;;;;;;;;;;;20.40;99.90;;;;;;5057869;28;20004;-56
2022/04/11 10:15:30;;;;;;;;;;;20.40;99.90;;;;;;5056472;28;20045;-58
2022/04/11 10:17:58;;;;;;;;;;;20.40;99.90;;;;;;5060464;28;19971;-57
2022/04/11 10:20:26;;;;;;;;;;;20.40;99.90;;;;;;5056493;28;19928;-58
2022/04/11 10:22:55;;;;;;;;;;;20.40;99.90;;;;;;5064695;28;19931;-56
2022/04/11 10:25:23;;;;;;;;;;;20.40;99.90;;;;;;5057477;28;20638;-58
2022/04/11 10:28:08;;;;;;;;;;;20.40;99.90;;;;;;5055536;28;19928;-57
2022/04/11 10:30:41;;;;;;;;;;;20.40;99.90;;;;;;5053043;28;20393;-56
2022/04/11 10:33:08;;;;;;;;;;;20.40;99.90;;;;;;5055840;28;19936;-57
2022/04/11 10:35:40;;;;;;;;;;;20.40;99.90;;;;;;5054243;28;20603;-59
2022/04/11 10:38:08;;;;;;;;;;;20.50;99.90;;;;;;5044804;28;19920;-57
2022/04/11 10:40:37;;;;;;;;;;;20.40;99.90;;;;;;5052524;28;19931;-60
2022/04/11 10:43:05;;;;;;;;;;;20.50;99.90;;;;;;5057898;28;19924;-59
2022/04/11 10:45:36;;;;;;;;;;;20.50;99.90;;;;;;5064631;28;19932;-58
2022/04/11 10:48:04;;;;;;;;;;;20.50;99.90;;;;;;5062904;28;19947;-59
2022/04/11 10:50:35;;;;;;;;;;;20.50;99.90;;;;;;5056840;28;19924;-59
2022/04/11 10:53:09;;;;;;;;;;;20.40;99.90;;;;;;5061948;28;19924;-59
2022/04/11 10:55:55;;;;;;;;;;;20.40;99.90;;;;;;5058129;28;19932;-58
2022/04/11 10:58:23;;;;;;;;;;;20.40;99.90;;;;;;5063034;28;19924;-60
2022/04/11 11:00:54;;;;;;;;;;;20.30;99.90;;;;;;5060193;28;20401;-60
2022/04/11 11:03:21;;;;;;;;;;;20.40;99.90;;;;;;5063617;28;19924;-56
2022/04/11 11:06:21;;;;;;;;;;;20.40;99.90;;;;;;5065004;28;19925;-59
2022/04/11 11:08:49;;;;;;;;;;;20.40;99.90;;;;;;5045036;28;19935;-59
2022/04/11 11:11:22;;;;;;;;;;;20.50;99.90;;;;;;5065710;28;19924;-60
2022/04/11 11:13:50;;;;;;;;;;;20.50;99.90;;;;;;5065531;28;20550;-58
2022/04/11 11:16:20;;;;;;;;;;;20.50;99.90;;;;;;5049948;28;19943;-62
2022/04/11 11:19:09;;;;;;;;;;;20.40;99.90;;;;;;5053533;28;19924;-61
2022/04/11 11:21:37;;;;;;;;;;;20.40;99.90;;;;;;5063698;28;19925;-56
2022/04/11 11:24:06;;;;;;;;;;;20.40;99.90;;;;;;5058817;28;19921;-58
2022/04/11 11:26:53;;;;;;;;;;;20.50;99.90;;;;;;5044187;28;19929;-58
2022/04/11 11:29:20;;;;;;;;;;;20.50;99.90;;;;;;5064495;28;20317;-62
2022/04/11 11:31:49;;;;;;;;;;;20.60;99.90;;;;;;5056752;28;19928;-60
2022/04/11 11:34:17;;;;;;;;;;;20.70;99.90;;;;;;5061403;28;19924;-60
2022/04/11 11:36:44;;;;;;;;;;;20.80;99.60;;;;;;5066826;28;19924;-59
2022/04/11 11:39:12;;;;;;;;;;;20.90;99.40;;;;;;5046913;28;19948;-60
2022/04/11 11:41:42;;;;;;;;;;;21.00;99.50;;;;;;5065282;28;19943;-61
2022/04/11 11:44:09;;;;;;;;;;;21.20;99.80;;;;;;5069202;28;19935;-61
2022/04/11 11:46:58;;;;;;;;;;;21.30;99.90;;;;;;5065185;28;20333;-60
2022/04/11 11:49:37;;;;;;;;;;;21.30;99.90;;;;;;5065420;28;20277;-58
2022/04/11 11:52:09;;;;;;;;;;;21.30;99.90;;;;;;5056965;28;19927;-60
2022/04/11 11:54:37;;;;;;;;;;;21.30;99.90;;;;;;5059032;28;19931;-61
2022/04/11 11:57:13;;;;;;;;;;;21.30;99.90;;;;;;5066299;28;19924;-61
2022/04/11 11:59:48;;;;;;;;;;;21.30;99.90;;;;;;5062202;28;19924;-61
2022/04/11 12:05:01;;;;;;;;;;;21.30;99.90;;;;;;5062646;28;20392;-65
2022/04/11 12:07:28;;;;;;;;;;;21.30;99.90;;;;;;5058451;28;20406;-62
2022/04/11 12:09:56;;;;;;;;;;;21.30;99.90;;;;;;5052733;28;19924;-58
2022/04/11 12:12:23;;;;;;;;;;;21.20;99.90;;;;;;5051055;28;19929;-60
2022/04/11 12:15:00;;;;;;;;;;;21.20;99.90;;;;;;5066506;28;19935;-60
2022/04/11 12:17:32;;;;;;;;;;;21.20;99.90;;;;;;5048109;28;20122;-60
2022/04/11 12:20:11;;;;;;;;;;;21.20;99.90;;;;;;5055445;28;19924;-61
2022/04/11 12:22:39;;;;;;;;;;;21.20;99.90;;;;;;5061785;28;19931;-60
2022/04/11 12:25:39;;;;;;;;;;;21.20;99.90;;;;;;5062386;28;20277;-59
2022/04/11 12:28:10;;;;;;;;;;;21.20;99.90;;;;;;5007356;28;20341;-61
2022/04/11 12:30:38;;;;;;;;;;;21.20;99.90;;;;;;5057748;28;20290;-59
2022/04/11 12:33:05;;;;;;;;;;;21.10;99.90;;;;;;5060339;28;19932;-59
2022/04/11 12:35:33;;;;;;;;;;;21.10;99.90;;;;;;5067333;28;20223;-61
2022/04/11 12:38:07;;;;;;;;;;;21.00;99.80;;;;;;5062164;28;20317;-59
2022/04/11 12:40:44;;;;;;;;;;;20.90;98.80;;;;;;5057094;28;19994;-58
2022/04/11 12:43:27;;;;;;;;;;;20.90;98.10;;;;;;5054559;28;19925;-60
2022/04/11 12:46:03;;;;;;;;;;;20.90;97.70;;;;;;5063734;28;19928;-59
2022/04/11 12:48:51;;;;;;;;;;;20.90;97.50;;;;;;5070139;28;19931;-60
2022/04/11 12:51:18;;;;;;;;;;;20.90;97.50;;;;;;5062462;28;19978;-60
2022/04/11 12:53:45;;;;;;;;;;;20.90;97.60;;;;;;5054383;28;20313;-59
2022/04/11 12:56:12;;;;;;;;;;;20.90;97.70;;;;;;5066146;28;20237;-60
2022/04/11 12:58:40;;;;;;;;;;;21.00;97.80;;;;;;5065301;28;19935;-61
2022/04/11 13:01:07;;;;;;;;;;;20.90;97.80;;;;;;5062568;28;19920;-61
2022/04/11 13:03:35;;;;;;;;;;;20.90;97.80;;;;;;5053771;28;19935;-60
2022/04/11 13:06:04;;;;;;;;;;;21.00;97.80;;;;;;5062691;28;19924;-61
2022/04/11 13:08:32;;;;;;;;;;;21.00;97.90;;;;;;5032131;28;19932;-59
2022/04/11 13:10:59;;;;;;;;;;;21.00;98.10;;;;;;5064257;28;19924;-61
2022/04/11 13:13:26;;;;;;;;;;;21.00;98.20;;;;;;5046923;28;19924;-60
2022/04/11 13:18:39;;;;;;;;;;;21.00;98.30;;;;;;5068713;28;19924;-60
2022/04/11 13:21:06;;;;;;;;;;;21.00;98.30;;;;;;5067758;28;19931;-60
2022/04/11 13:23:34;;;;;;;;;;;21.00;98.40;;;;;;5057473;28;19921;-59
2022/04/11 13:26:01;;;;;;;;;;;21.00;98.40;;;;;;5055100;28;20313;-60
2022/04/11 13:28:29;;;;;;;;;;;21.00;98.50;;;;;;5053529;28;19972;-62
2022/04/11 13:30:57;;;;;;;;;;;21.00;98.50;;;;;;5048457;28;19929;-60
2022/04/11 13:33:24;;;;;;;;;;;21.00;98.40;;;;;;5049381;28;20408;-59
2022/04/11 13:35:51;;;;;;;;;;;21.00;98.40;;;;;;5056829;28;19925;-59
2022/04/11 13:38:19;;;;;;;;;;;21.00;98.30;;;;;;5051841;28;19931;-61
2022/04/11 13:40:46;;;;;;;;;;;21.00;98.10;;;;;;5062350;28;19927;-59
2022/04/11 13:43:13;;;;;;;;;;;21.00;98.20;;;;;;5049235;28;20341;-58
2022/04/11 13:45:43;;;;;;;;;;;21.10;98.50;;;;;;5053714;28;19947;-59
2022/04/11 13:48:11;;;;;;;;;;;21.10;98.80;;;;;;5040102;28;20293;-58
2022/04/11 13:50:40;;;;;;;;;;;21.20;99.40;;;;;;5033920;28;19925;-61
2022/04/11 13:53:07;;;;;;;;;;;21.20;99.70;;;;;;5040007;28;19925;-59
2022/04/11 13:55:35;;;;;;;;;;;21.30;99.90;;;;;;5040278;28;19927;-60
2022/04/11 13:58:10;;;;;;;;;;;21.40;99.90;;;;;;5040893;28;20000;-59
2022/04/11 14:00:41;;;;;;;;;;;21.40;99.90;;;;;;5041893;28;20392;-59
2022/04/11 14:03:09;;;;;;;;;;;21.50;99.90;;;;;;5043622;28;19932;-58
2022/04/11 14:05:37;;;;;;;;;;;21.50;99.90;;;;;;5042765;28;19924;-59
2022/04/11 14:08:04;;;;;;;;;;;21.60;99.90;;;;;;5038364;28;19928;-58
2022/04/11 14:10:31;;;;;;;;;;;21.70;99.90;;;;;;5041069;28;19921;-59
2022/04/11 14:12:59;;;;;;;;;;;21.70;99.90;;;;;;5042049;28;19925;-59
2022/04/11 14:15:26;;;;;;;;;;;21.80;99.90;;;;;;5040276;28;20310;-57
2022/04/11 14:17:53;;;;;;;;;;;21.80;99.90;;;;;;5042502;28;19931;-57
2022/04/11 14:20:20;;;;;;;;;;;21.90;99.90;;;;;;5041756;28;19936;-60
2022/04/11 14:22:48;;;;;;;;;;;21.90;99.90;;;;;;5043219;28;19929;-60
2022/04/11 14:25:15;;;;;;;;;;;22.00;99.90;;;;;;5042542;28;20538;-59
2022/04/11 14:28:03;;;;;;;;;;;22.00;99.90;;;;;;5039813;28;19921;-59
2022/04/11 14:30:37;;;;;;;;;;;22.00;99.90;;;;;;5042072;28;19932;-59
2022/04/11 14:33:04;;;;;;;;;;;22.10;99.90;;;;;;5042490;28;19921;-60
2022/04/11 14:35:31;;;;;;;;;;;22.10;99.90;;;;;;5044330;28;20010;-57